sensor_id;sensor_type;location;lat;lon;timestamp;temperature;humidity
19920;DHT22;10122;50.074;19.920;2022-09-30T00:01:31;10.50;99.90
19920;DHT22;10122;50.074;19.920;2022-09-30T00:03:57;10.50;99.90
19920;DHT22;10122;50.074;19.920;2022-09-30T00:06:25;10.50;99.90
19920;DHT22;10122;50.074;19.920;2022-09-30T00:08:55;10.50;99.90
19920;DHT22;10122;50.074;19.920;2022-09-30T00:11:29;10.50;99.90
19920;DHT22;10122;50.074;19.920;2022-09-30T00:13:56;10.50;99.90
19920;DHT22;10122;50.074;19.920;2022-09-30T00:16:27;10.50;99.90
19920;DHT22;10122;50.074;19.920;2022-09-30T00:18:55;10.50;99.90
19920;DHT22;10122;50.074;19.920;2022-09-30T00:21:21;10.50;99.90
19920;DHT22;10122;50.074;19.920;2022-09-30T00:23:47;10.60;99.90
19920;DHT22;10122;50.074;19.920;2022-09-30T00:26:16;10.60;99.90
19920;DHT22;10122;50.074;19.920;2022-09-30T00:28:42;10.50;99.90
19920;DHT22;10122;50.074;19.920;2022-09-30T00:31:12;10.50;99.90
19920;DHT22;10122;50.074;19.920;2022-09-30T00:33:37;10.50;99.90
19920;DHT22;10122;50.074;19.920;2022-09-30T00:36:03;10.40;99.90
19920;DHT22;10122;50.074;19.920;2022-09-30T00:38:29;10.50;99.90
19920;DHT22;10122;50.074;19.920;2022-09-30T00:40:55;10.50;99.90
19920;DHT22;10122;50.074;19.920;2022-09-30T00:43:42;10.50;99.90
19920;DHT22;10122;50.074;19.920;2022-09-30T00:46:31;10.50;99.90
19920;DHT22;10122;50.074;19.920;2022-09-30T00:49:03;10.50;99.90
19920;DHT22;10122;50.074;19.920;2022-09-30T00:51:38;10.50;99.90
19920;DHT22;10122;50.074;19.920;2022-09-30T00:54:09;10.50;99.90
19920;DHT22;10122;50.074;19.920;2022-09-30T00:56:43;10.50;99.90
19920;DHT22;10122;50.074;19.920;2022-09-30T00:59:11;10.60;99.90
19920;DHT22;10122;50.074;19.920;2022-09-30T01:01:39;10.50;99.90
19920;DHT22;10122;50.074;19.920;2022-09-30T01:04:13;10.50;99.90
19920;DHT22;10122;50.074;19.920;2022-09-30T01:06:40;10.50;99.90
19920;DHT22;10122;50.074;19.920;2022-09-30T01:09:07;10.50;99.90
19920;DHT22;10122;50.074;19.920;2022-09-30T01:11:33;10.60;99.90
19920;DHT22;10122;50.074;19.920;2022-09-30T01:14:05;10.60;99.90
19920;DHT22;10122;50.074;19.920;2022-09-30T01:19:29;10.60;99.90
19920;DHT22;10122;50.074;19.920;2022-09-30T01:27:52;10.50;99.90
19920;DHT22;10122;50.074;19.920;2022-09-30T01:36:09;10.50;99.90
19920;DHT22;10122;50.074;19.920;2022-09-30T01:44:15;10.60;99.90
19920;DHT22;10122;50.074;19.920;2022-09-30T01:49:33;10.60;99.90
19920;DHT22;10122;50.074;19.920;2022-09-30T01:52:20;10.50;99.90
19920;DHT22;10122;50.074;19.920;2022-09-30T01:55:05;10.50;99.90
19920;DHT22;10122;50.074;19.920;2022-09-30T02:00:17;10.50;99.90
19920;DHT22;10122;50.074;19.920;2022-09-30T02:02:53;10.50;99.90
19920;DHT22;10122;50.074;19.920;2022-09-30T02:10:52;10.60;99.90
19920;DHT22;10122;50.074;19.920;2022-09-30T02:13:34;10.60;99.90
19920;DHT22;10122;50.074;19.920;2022-09-30T02:16:06;10.60;99.90
19920;DHT22;10122;50.074;19.920;2022-09-30T02:22:06;10.70;99.90
19920;DHT22;10122;50.074;19.920;2022-09-30T02:24:35;10.70;99.90
19920;DHT22;10122;50.074;19.920;2022-09-30T02:27:07;10.70;99.90
19920;DHT22;10122;50.074;19.920;2022-09-30T02:29:39;10.70;99.90
19920;DHT22;10122;50.074;19.920;2022-09-30T02:32:15;10.70;99.90
19920;DHT22;10122;50.074;19.920;2022-09-30T02:34:47;10.70;99.90
19920;DHT22;10122;50.074;19.920;2022-09-30T02:37:26;10.70;99.90
19920;DHT22;10122;50.074;19.920;2022-09-30T02:42:24;10.70;99.90
19920;DHT22;10122;50.074;19.920;2022-09-30T02:44:58;10.70;99.90
19920;DHT22;10122;50.074;19.920;2022-09-30T02:53:07;10.60;99.90
19920;DHT22;10122;50.074;19.920;2022-09-30T02:58:21;10.70;99.90
19920;DHT22;10122;50.074;19.920;2022-09-30T03:00:51;10.70;99.90
19920;DHT22;10122;50.074;19.920;2022-09-30T03:05:45;10.70;99.90
19920;DHT22;10122;50.074;19.920;2022-09-30T03:08:13;10.70;99.90
19920;DHT22;10122;50.074;19.920;2022-09-30T03:10:39;10.70;99.90
19920;DHT22;10122;50.074;19.920;2022-09-30T03:15:36;10.70;99.90
19920;DHT22;10122;50.074;19.920;2022-09-30T03:21:05;10.60;99.90
19920;DHT22;10122;50.074;19.920;2022-09-30T03:42:14;10.60;99.90
19920;DHT22;10122;50.074;19.920;2022-09-30T03:44:54;10.60;99.90
19920;DHT22;10122;50.074;19.920;2022-09-30T03:47:24;10.60;99.90
19920;DHT22;10122;50.074;19.920;2022-09-30T03:49:55;10.60;99.90
19920;DHT22;10122;50.074;19.920;2022-09-30T03:52:23;10.60;99.90
19920;DHT22;10122;50.074;19.920;2022-09-30T03:54:53;10.60;99.90
19920;DHT22;10122;50.074;19.920;2022-09-30T03:57:19;10.60;99.90
19920;DHT22;10122;50.074;19.920;2022-09-30T03:59:45;10.60;99.90
19920;DHT22;10122;50.074;19.920;2022-09-30T04:02:11;10.70;99.90
19920;DHT22;10122;50.074;19.920;2022-09-30T04:04:40;10.60;99.90
19920;DHT22;10122;50.074;19.920;2022-09-30T04:07:10;10.60;99.90
19920;DHT22;10122;50.074;19.920;2022-09-30T04:09:37;10.60;99.90
19920;DHT22;10122;50.074;19.920;2022-09-30T04:12:03;10.60;99.90
19920;DHT22;10122;50.074;19.920;2022-09-30T04:14:29;10.60;99.90
19920;DHT22;10122;50.074;19.920;2022-09-30T04:16:54;10.60;99.90
19920;DHT22;10122;50.074;19.920;2022-09-30T04:19:20;10.60;99.90
19920;DHT22;10122;50.074;19.920;2022-09-30T04:21:46;10.60;99.90
19920;DHT22;10122;50.074;19.920;2022-09-30T04:24:11;10.60;99.90
19920;DHT22;10122;50.074;19.920;2022-09-30T04:26:37;10.60;99.90
19920;DHT22;10122;50.074;19.920;2022-09-30T04:29:03;10.60;99.90
19920;DHT22;10122;50.074;19.920;2022-09-30T04:31:28;10.60;99.90
19920;DHT22;10122;50.074;19.920;2022-09-30T04:33:55;10.70;99.90
19920;DHT22;10122;50.074;19.920;2022-09-30T04:36:21;10.70;99.90
19920;DHT22;10122;50.074;19.920;2022-09-30T04:38:47;10.70;99.90
19920;DHT22;10122;50.074;19.920;2022-09-30T04:41:14;10.70;99.90
19920;DHT22;10122;50.074;19.920;2022-09-30T04:43:42;10.70;99.90
19920;DHT22;10122;50.074;19.920;2022-09-30T04:46:20;10.70;99.90
19920;DHT22;10122;50.074;19.920;2022-09-30T04:48:48;10.70;99.90
19920;DHT22;10122;50.074;19.920;2022-09-30T04:51:16;10.70;99.90
19920;DHT22;10122;50.074;19.920;2022-09-30T04:53:43;10.70;99.90
19920;DHT22;10122;50.074;19.920;2022-09-30T04:56:09;10.70;99.90
19920;DHT22;10122;50.074;19.920;2022-09-30T04:58:35;10.70;99.90
19920;DHT22;10122;50.074;19.920;2022-09-30T05:01:10;10.70;99.90
19920;DHT22;10122;50.074;19.920;2022-09-30T05:03:36;10.60;99.90
19920;DHT22;10122;50.074;19.920;2022-09-30T05:06:03;10.60;99.90
19920;DHT22;10122;50.074;19.920;2022-09-30T05:08:29;10.60;99.90
19920;DHT22;10122;50.074;19.920;2022-09-30T05:10:58;10.70;99.90
19920;DHT22;10122;50.074;19.920;2022-09-30T05:13:25;10.70;99.90
19920;DHT22;10122;50.074;19.920;2022-09-30T05:15:54;10.60;99.90
19920;DHT22;10122;50.074;19.920;2022-09-30T05:18:20;10.60;99.90
19920;DHT22;10122;50.074;19.920;2022-09-30T05:20:49;10.60;99.90
19920;DHT22;10122;50.074;19.920;2022-09-30T05:23:16;10.70;99.90
19920;DHT22;10122;50.074;19.920;2022-09-30T05:25:42;10.70;99.90
19920;DHT22;10122;50.074;19.920;2022-09-30T05:28:08;10.70;99.90
19920;DHT22;10122;50.074;19.920;2022-09-30T05:30:33;10.70;99.90
19920;DHT22;10122;50.074;19.920;2022-09-30T05:32:59;10.70;99.90
19920;DHT22;10122;50.074;19.920;2022-09-30T05:35:25;10.70;99.90
19920;DHT22;10122;50.074;19.920;2022-09-30T05:37:50;10.80;99.90
19920;DHT22;10122;50.074;19.920;2022-09-30T05:40:16;10.70;99.90
19920;DHT22;10122;50.074;19.920;2022-09-30T05:42:42;10.70;99.90
19920;DHT22;10122;50.074;19.920;2022-09-30T05:45:12;10.70;99.90
19920;DHT22;10122;50.074;19.920;2022-09-30T05:47:37;10.80;99.90
19920;DHT22;10122;50.074;19.920;2022-09-30T05:50:04;10.80;99.90
19920;DHT22;10122;50.074;19.920;2022-09-30T05:52:30;10.80;99.90
19920;DHT22;10122;50.074;19.920;2022-09-30T05:54:56;10.80;99.90
19920;DHT22;10122;50.074;19.920;2022-09-30T05:57:28;10.80;99.90
19920;DHT22;10122;50.074;19.920;2022-09-30T05:59:54;10.80;99.90
19920;DHT22;10122;50.074;19.920;2022-09-30T06:02:20;10.90;99.90
19920;DHT22;10122;50.074;19.920;2022-09-30T06:04:46;10.90;99.90
19920;DHT22;10122;50.074;19.920;2022-09-30T06:07:12;10.90;99.90
19920;DHT22;10122;50.074;19.920;2022-09-30T06:09:38;11.00;99.90
19920;DHT22;10122;50.074;19.920;2022-09-30T06:12:04;11.00;99.90
19920;DHT22;10122;50.074;19.920;2022-09-30T06:14:31;11.00;99.90
19920;DHT22;10122;50.074;19.920;2022-09-30T06:16:57;11.00;99.90
19920;DHT22;10122;50.074;19.920;2022-09-30T06:19:25;11.10;99.90
19920;DHT22;10122;50.074;19.920;2022-09-30T06:21:53;11.10;99.90
19920;DHT22;10122;50.074;19.920;2022-09-30T06:24:19;11.00;99.90
19920;DHT22;10122;50.074;19.920;2022-09-30T06:26:44;11.10;99.90
19920;DHT22;10122;50.074;19.920;2022-09-30T06:29:10;11.10;99.90
19920;DHT22;10122;50.074;19.920;2022-09-30T06:31:36;11.10;99.90
19920;DHT22;10122;50.074;19.920;2022-09-30T06:34:01;11.10;99.90
19920;DHT22;10122;50.074;19.920;2022-09-30T06:36:27;11.10;99.90
19920;DHT22;10122;50.074;19.920;2022-09-30T06:38:53;11.20;99.90
19920;DHT22;10122;50.074;19.920;2022-09-30T06:41:20;11.20;99.90
19920;DHT22;10122;50.074;19.920;2022-09-30T06:43:46;11.20;99.90
19920;DHT22;10122;50.074;19.920;2022-09-30T06:46:12;11.20;99.90
19920;DHT22;10122;50.074;19.920;2022-09-30T06:48:38;11.20;99.90
19920;DHT22;10122;50.074;19.920;2022-09-30T06:51:05;11.20;99.90
19920;DHT22;10122;50.074;19.920;2022-09-30T06:53:35;11.30;99.90
19920;DHT22;10122;50.074;19.920;2022-09-30T06:56:01;11.30;99.90
19920;DHT22;10122;50.074;19.920;2022-09-30T06:58:27;11.30;99.90
19920;DHT22;10122;50.074;19.920;2022-09-30T07:01:00;11.30;99.90
19920;DHT22;10122;50.074;19.920;2022-09-30T07:03:29;11.30;99.90
19920;DHT22;10122;50.074;19.920;2022-09-30T07:06:00;11.30;99.90
19920;DHT22;10122;50.074;19.920;2022-09-30T07:08:27;11.40;99.90
19920;DHT22;10122;50.074;19.920;2022-09-30T07:11:00;11.40;99.90
19920;DHT22;10122;50.074;19.920;2022-09-30T07:13:26;11.40;99.90
19920;DHT22;10122;50.074;19.920;2022-09-30T07:15:52;11.40;99.90
19920;DHT22;10122;50.074;19.920;2022-09-30T07:18:23;11.40;99.90
19920;DHT22;10122;50.074;19.920;2022-09-30T07:20:50;11.40;99.90
19920;DHT22;10122;50.074;19.920;2022-09-30T07:23:16;11.40;99.90
19920;DHT22;10122;50.074;19.920;2022-09-30T07:25:53;11.40;99.90
19920;DHT22;10122;50.074;19.920;2022-09-30T07:28:24;11.40;99.90
19920;DHT22;10122;50.074;19.920;2022-09-30T07:30:57;11.40;99.90
19920;DHT22;10122;50.074;19.920;2022-09-30T07:33:25;11.40;99.90
19920;DHT22;10122;50.074;19.920;2022-09-30T07:35:55;11.40;99.90
19920;DHT22;10122;50.074;19.920;2022-09-30T07:38:22;11.40;99.90
19920;DHT22;10122;50.074;19.920;2022-09-30T07:40:55;11.40;99.90
19920;DHT22;10122;50.074;19.920;2022-09-30T07:43:24;11.30;99.90
19920;DHT22;10122;50.074;19.920;2022-09-30T07:45:50;11.30;99.90
19920;DHT22;10122;50.074;19.920;2022-09-30T07:48:16;11.40;99.90
19920;DHT22;10122;50.074;19.920;2022-09-30T07:51:00;11.40;99.90
19920;DHT22;10122;50.074;19.920;2022-09-30T07:53:26;11.40;99.90
19920;DHT22;10122;50.074;19.920;2022-09-30T07:55:52;11.40;99.90
19920;DHT22;10122;50.074;19.920;2022-09-30T07:58:17;11.40;99.90
19920;DHT22;10122;50.074;19.920;2022-09-30T08:00:46;11.40;99.90
19920;DHT22;10122;50.074;19.920;2022-09-30T08:03:14;11.40;99.90
19920;DHT22;10122;50.074;19.920;2022-09-30T08:05:41;11.50;99.90
19920;DHT22;10122;50.074;19.920;2022-09-30T08:08:10;11.50;99.90
19920;DHT22;10122;50.074;19.920;2022-09-30T08:10:35;11.50;99.90
19920;DHT22;10122;50.074;19.920;2022-09-30T08:13:01;11.50;99.90
19920;DHT22;10122;50.074;19.920;2022-09-30T08:15:27;11.50;99.90
19920;DHT22;10122;50.074;19.920;2022-09-30T08:17:52;11.40;99.90
19920;DHT22;10122;50.074;19.920;2022-09-30T08:20:18;11.50;99.90
19920;DHT22;10122;50.074;19.920;2022-09-30T08:22:44;11.50;99.90
19920;DHT22;10122;50.074;19.920;2022-09-30T08:25:09;11.40;99.90
19920;DHT22;10122;50.074;19.920;2022-09-30T08:27:35;11.50;99.90
19920;DHT22;10122;50.074;19.920;2022-09-30T08:30:01;11.50;99.90
19920;DHT22;10122;50.074;19.920;2022-09-30T08:32:29;11.40;99.90
19920;DHT22;10122;50.074;19.920;2022-09-30T08:34:55;11.40;99.90
19920;DHT22;10122;50.074;19.920;2022-09-30T08:37:21;11.40;99.90
19920;DHT22;10122;50.074;19.920;2022-09-30T08:39:48;11.50;99.90
19920;DHT22;10122;50.074;19.920;2022-09-30T08:42:18;11.50;99.90
19920;DHT22;10122;50.074;19.920;2022-09-30T08:44:48;11.60;99.90
19920;DHT22;10122;50.074;19.920;2022-09-30T08:47:29;11.60;99.90
19920;DHT22;10122;50.074;19.920;2022-09-30T08:53:02;11.60;99.90
19920;DHT22;10122;50.074;19.920;2022-09-30T08:55:34;11.70;99.90
19920;DHT22;10122;50.074;19.920;2022-09-30T08:58:03;11.70;99.90
19920;DHT22;10122;50.074;19.920;2022-09-30T09:00:32;11.70;99.90
19920;DHT22;10122;50.074;19.920;2022-09-30T09:02:59;11.70;99.90
19920;DHT22;10122;50.074;19.920;2022-09-30T09:08:23;11.80;99.90
19920;DHT22;10122;50.074;19.920;2022-09-30T09:13:50;11.80;99.90
19920;DHT22;10122;50.074;19.920;2022-09-30T09:16:22;11.70;99.90
19920;DHT22;10122;50.074;19.920;2022-09-30T09:18:57;11.70;99.90
19920;DHT22;10122;50.074;19.920;2022-09-30T09:21:53;11.70;99.90
19920;DHT22;10122;50.074;19.920;2022-09-30T09:24:23;11.70;99.90
19920;DHT22;10122;50.074;19.920;2022-09-30T09:26:52;11.70;99.90
19920;DHT22;10122;50.074;19.920;2022-09-30T09:29:44;11.80;99.90
19920;DHT22;10122;50.074;19.920;2022-09-30T09:32:16;11.80;99.90
19920;DHT22;10122;50.074;19.920;2022-09-30T09:34:42;11.80;99.90
19920;DHT22;10122;50.074;19.920;2022-09-30T09:39:58;11.80;99.90
19920;DHT22;10122;50.074;19.920;2022-09-30T09:42:40;11.80;99.90
19920;DHT22;10122;50.074;19.920;2022-09-30T09:47:52;11.90;99.90
19920;DHT22;10122;50.074;19.920;2022-09-30T09:50:54;11.90;99.90
19920;DHT22;10122;50.074;19.920;2022-09-30T09:53:46;11.80;99.90
19920;DHT22;10122;50.074;19.920;2022-09-30T09:56:18;11.80;99.90
19920;DHT22;10122;50.074;19.920;2022-09-30T09:59:14;11.80;99.90
19920;DHT22;10122;50.074;19.920;2022-09-30T10:01:43;11.80;99.90
19920;DHT22;10122;50.074;19.920;2022-09-30T10:04:16;11.80;99.90
19920;DHT22;10122;50.074;19.920;2022-09-30T10:06:55;11.80;99.90
19920;DHT22;10122;50.074;19.920;2022-09-30T10:09:31;11.80;99.90
19920;DHT22;10122;50.074;19.920;2022-09-30T10:17:28;11.90;99.90
19920;DHT22;10122;50.074;19.920;2022-09-30T10:20:16;11.90;99.90
19920;DHT22;10122;50.074;19.920;2022-09-30T10:22:43;11.90;99.90
19920;DHT22;10122;50.074;19.920;2022-09-30T10:27:51;11.90;99.90
19920;DHT22;10122;50.074;19.920;2022-09-30T10:33:01;11.90;99.90
19920;DHT22;10122;50.074;19.920;2022-09-30T10:35:30;11.90;99.90
19920;DHT22;10122;50.074;19.920;2022-09-30T10:37:58;12.00;99.90
19920;DHT22;10122;50.074;19.920;2022-09-30T10:40:27;12.00;99.90
19920;DHT22;10122;50.074;19.920;2022-09-30T10:42:54;12.00;99.90
19920;DHT22;10122;50.074;19.920;2022-09-30T10:45:32;12.00;99.90
19920;DHT22;10122;50.074;19.920;2022-09-30T10:48:05;12.00;99.90
19920;DHT22;10122;50.074;19.920;2022-09-30T10:50:37;12.00;99.90
19920;DHT22;10122;50.074;19.920;2022-09-30T10:53:19;12.00;99.90
19920;DHT22;10122;50.074;19.920;2022-09-30T10:55:45;12.10;99.90
19920;DHT22;10122;50.074;19.920;2022-09-30T11:01:23;12.00;99.90
19920;DHT22;10122;50.074;19.920;2022-09-30T11:04:25;12.00;99.90
19920;DHT22;10122;50.074;19.920;2022-09-30T11:09:49;12.00;99.90
19920;DHT22;10122;50.074;19.920;2022-09-30T11:12:45;12.00;99.90
19920;DHT22;10122;50.074;19.920;2022-09-30T11:15:35;12.00;99.90
19920;DHT22;10122;50.074;19.920;2022-09-30T11:20:44;12.00;99.90
19920;DHT22;10122;50.074;19.920;2022-09-30T11:23:27;12.10;99.90
19920;DHT22;10122;50.074;19.920;2022-09-30T11:28:41;12.10;99.90
19920;DHT22;10122;50.074;19.920;2022-09-30T11:31:19;12.10;99.90
19920;DHT22;10122;50.074;19.920;2022-09-30T11:37:27;12.20;99.90
19920;DHT22;10122;50.074;19.920;2022-09-30T11:40:01;12.20;99.90
19920;DHT22;10122;50.074;19.920;2022-09-30T11:48:34;12.30;99.90
19920;DHT22;10122;50.074;19.920;2022-09-30T11:51:18;12.30;99.90
19920;DHT22;10122;50.074;19.920;2022-09-30T11:53:47;12.40;99.90
19920;DHT22;10122;50.074;19.920;2022-09-30T11:58:58;12.50;99.90
19920;DHT22;10122;50.074;19.920;2022-09-30T12:01:35;12.60;99.90
19920;DHT22;10122;50.074;19.920;2022-09-30T12:04:11;12.60;99.90
19920;DHT22;10122;50.074;19.920;2022-09-30T12:06:49;12.70;99.90
19920;DHT22;10122;50.074;19.920;2022-09-30T12:09:39;12.70;99.90
19920;DHT22;10122;50.074;19.920;2022-09-30T12:12:09;12.80;99.90
19920;DHT22;10122;50.074;19.920;2022-09-30T12:17:24;12.80;99.90
19920;DHT22;10122;50.074;19.920;2022-09-30T12:19:54;12.80;99.90
19920;DHT22;10122;50.074;19.920;2022-09-30T12:22:29;12.80;99.90
19920;DHT22;10122;50.074;19.920;2022-09-30T12:24:56;12.80;99.90
19920;DHT22;10122;50.074;19.920;2022-09-30T12:27:38;12.80;99.90
19920;DHT22;10122;50.074;19.920;2022-09-30T12:30:13;12.80;99.90
19920;DHT22;10122;50.074;19.920;2022-09-30T12:36:04;12.80;99.90
19920;DHT22;10122;50.074;19.920;2022-09-30T12:44:55;12.80;99.90
19920;DHT22;10122;50.074;19.920;2022-09-30T12:47:53;12.90;99.90
19920;DHT22;10122;50.074;19.920;2022-09-30T12:50:23;12.90;99.90
19920;DHT22;10122;50.074;19.920;2022-09-30T12:52:51;12.90;99.90
19920;DHT22;10122;50.074;19.920;2022-09-30T12:55:29;12.90;99.90
19920;DHT22;10122;50.074;19.920;2022-09-30T12:57:57;13.00;99.90
19920;DHT22;10122;50.074;19.920;2022-09-30T13:00:28;13.00;99.90
19920;DHT22;10122;50.074;19.920;2022-09-30T13:03:13;13.00;99.90
19920;DHT22;10122;50.074;19.920;2022-09-30T13:08:21;13.10;99.90
19920;DHT22;10122;50.074;19.920;2022-09-30T13:10:57;13.10;99.90
19920;DHT22;10122;50.074;19.920;2022-09-30T13:13:25;13.20;99.90
19920;DHT22;10122;50.074;19.920;2022-09-30T13:15:56;13.20;99.90
19920;DHT22;10122;50.074;19.920;2022-09-30T13:26:04;13.20;99.90
19920;DHT22;10122;50.074;19.920;2022-09-30T13:28:51;13.20;99.90
19920;DHT22;10122;50.074;19.920;2022-09-30T13:31:22;13.20;99.90
19920;DHT22;10122;50.074;19.920;2022-09-30T13:36:29;13.30;99.90
19920;DHT22;10122;50.074;19.920;2022-09-30T13:41:43;13.30;99.90
19920;DHT22;10122;50.074;19.920;2022-09-30T13:44:19;13.30;99.90
19920;DHT22;10122;50.074;19.920;2022-09-30T13:46:50;13.30;99.90
19920;DHT22;10122;50.074;19.920;2022-09-30T13:49:35;13.30;99.90
19920;DHT22;10122;50.074;19.920;2022-09-30T13:52:07;13.30;99.90
19920;DHT22;10122;50.074;19.920;2022-09-30T13:54:36;13.30;99.90
19920;DHT22;10122;50.074;19.920;2022-09-30T13:57:05;13.40;99.90
19920;DHT22;10122;50.074;19.920;2022-09-30T13:59:44;13.40;99.90
19920;DHT22;10122;50.074;19.920;2022-09-30T14:05:31;13.50;99.90
19920;DHT22;10122;50.074;19.920;2022-09-30T14:13:42;13.90;99.90
19920;DHT22;10122;50.074;19.920;2022-09-30T14:22:04;14.10;99.90
19920;DHT22;10122;50.074;19.920;2022-09-30T14:24:37;14.10;99.90
19920;DHT22;10122;50.074;19.920;2022-09-30T14:32:29;14.00;99.90
19920;DHT22;10122;50.074;19.920;2022-09-30T14:34:57;14.00;99.90
19920;DHT22;10122;50.074;19.920;2022-09-30T14:37:30;13.90;99.90
19920;DHT22;10122;50.074;19.920;2022-09-30T14:39:57;13.90;99.90
19920;DHT22;10122;50.074;19.920;2022-09-30T14:42:32;13.80;99.90
19920;DHT22;10122;50.074;19.920;2022-09-30T14:45:01;13.80;99.90
19920;DHT22;10122;50.074;19.920;2022-09-30T14:47:39;13.70;99.90
19920;DHT22;10122;50.074;19.920;2022-09-30T14:50:25;13.70;99.90
19920;DHT22;10122;50.074;19.920;2022-09-30T14:52:52;13.70;99.90
19920;DHT22;10122;50.074;19.920;2022-09-30T14:55:34;13.70;99.90
19920;DHT22;10122;50.074;19.920;2022-09-30T14:58:20;13.60;99.90
19920;DHT22;10122;50.074;19.920;2022-09-30T15:00:59;13.60;99.90
19920;DHT22;10122;50.074;19.920;2022-09-30T15:03:26;13.60;99.90
19920;DHT22;10122;50.074;19.920;2022-09-30T15:05:53;13.60;99.90
19920;DHT22;10122;50.074;19.920;2022-09-30T15:08:20;13.50;99.90
19920;DHT22;10122;50.074;19.920;2022-09-30T15:10:52;13.50;99.90
19920;DHT22;10122;50.074;19.920;2022-09-30T15:13:20;13.50;99.90
19920;DHT22;10122;50.074;19.920;2022-09-30T15:15:46;13.40;99.90
19920;DHT22;10122;50.074;19.920;2022-09-30T15:18:32;13.40;99.90
19920;DHT22;10122;50.074;19.920;2022-09-30T15:21:09;13.30;99.90
19920;DHT22;10122;50.074;19.920;2022-09-30T15:23:38;13.30;99.90
19920;DHT22;10122;50.074;19.920;2022-09-30T15:26:06;13.30;99.90
19920;DHT22;10122;50.074;19.920;2022-09-30T15:28:35;13.30;99.90
19920;DHT22;10122;50.074;19.920;2022-09-30T15:31:02;13.30;99.90
19920;DHT22;10122;50.074;19.920;2022-09-30T15:33:29;13.30;99.90
19920;DHT22;10122;50.074;19.920;2022-09-30T15:36:04;13.30;99.90
19920;DHT22;10122;50.074;19.920;2022-09-30T15:38:32;13.20;99.90
19920;DHT22;10122;50.074;19.920;2022-09-30T15:41:09;13.20;99.90
19920;DHT22;10122;50.074;19.920;2022-09-30T15:43:43;13.20;99.90
19920;DHT22;10122;50.074;19.920;2022-09-30T15:46:25;13.20;99.90
19920;DHT22;10122;50.074;19.920;2022-09-30T15:48:54;13.20;99.90
19920;DHT22;10122;50.074;19.920;2022-09-30T15:53:52;13.20;99.90
19920;DHT22;10122;50.074;19.920;2022-09-30T15:56:36;13.20;99.90
19920;DHT22;10122;50.074;19.920;2022-09-30T15:59:05;13.20;99.90
19920;DHT22;10122;50.074;19.920;2022-09-30T16:06:55;13.20;99.90
19920;DHT22;10122;50.074;19.920;2022-09-30T16:09:25;13.10;99.90
19920;DHT22;10122;50.074;19.920;2022-09-30T16:12:35;13.10;99.90
19920;DHT22;10122;50.074;19.920;2022-09-30T16:14:57;13.10;99.90
19920;DHT22;10122;50.074;19.920;2022-09-30T16:19:55;13.10;99.90
19920;DHT22;10122;50.074;19.920;2022-09-30T16:25:27;13.10;99.90
19920;DHT22;10122;50.074;19.920;2022-09-30T16:27:57;13.10;99.90
19920;DHT22;10122;50.074;19.920;2022-09-30T16:30:24;13.10;99.90
19920;DHT22;10122;50.074;19.920;2022-09-30T16:32:52;13.10;99.90
19920;DHT22;10122;50.074;19.920;2022-09-30T16:35:23;13.10;99.90
19920;DHT22;10122;50.074;19.920;2022-09-30T16:37:56;13.00;99.90
19920;DHT22;10122;50.074;19.920;2022-09-30T16:40:24;13.00;99.90
19920;DHT22;10122;50.074;19.920;2022-09-30T16:42:51;13.00;99.90
19920;DHT22;10122;50.074;19.920;2022-09-30T16:45:19;13.00;99.90
19920;DHT22;10122;50.074;19.920;2022-09-30T16:47:46;13.00;99.90
19920;DHT22;10122;50.074;19.920;2022-09-30T16:50:16;13.00;99.90
19920;DHT22;10122;50.074;19.920;2022-09-30T16:52:43;13.00;99.90
19920;DHT22;10122;50.074;19.920;2022-09-30T16:55:09;13.00;99.90
19920;DHT22;10122;50.074;19.920;2022-09-30T16:57:34;13.00;99.90
19920;DHT22;10122;50.074;19.920;2022-09-30T17:00:00;13.00;99.90
19920;DHT22;10122;50.074;19.920;2022-09-30T17:02:26;13.00;99.90
19920;DHT22;10122;50.074;19.920;2022-09-30T17:04:51;13.00;99.90
19920;DHT22;10122;50.074;19.920;2022-09-30T17:07:17;13.00;99.90
19920;DHT22;10122;50.074;19.920;2022-09-30T17:09:43;13.00;99.90
19920;DHT22;10122;50.074;19.920;2022-09-30T17:12:09;13.00;99.90
19920;DHT22;10122;50.074;19.920;2022-09-30T17:14:37;13.00;99.90
19920;DHT22;10122;50.074;19.920;2022-09-30T17:17:02;13.00;99.90
19920;DHT22;10122;50.074;19.920;2022-09-30T17:19:28;13.00;99.90
19920;DHT22;10122;50.074;19.920;2022-09-30T17:21:54;13.00;99.90
19920;DHT22;10122;50.074;19.920;2022-09-30T17:24:20;13.00;99.90
19920;DHT22;10122;50.074;19.920;2022-09-30T17:26:46;13.00;99.90
19920;DHT22;10122;50.074;19.920;2022-09-30T17:29:11;13.00;99.90
19920;DHT22;10122;50.074;19.920;2022-09-30T17:31:37;13.00;99.90
19920;DHT22;10122;50.074;19.920;2022-09-30T17:34:03;13.00;99.90
19920;DHT22;10122;50.074;19.920;2022-09-30T17:36:33;12.90;99.90
19920;DHT22;10122;50.074;19.920;2022-09-30T17:38:58;12.90;99.90
19920;DHT22;10122;50.074;19.920;2022-09-30T17:41:24;13.00;99.90
19920;DHT22;10122;50.074;19.920;2022-09-30T17:44:08;12.90;99.90
19920;DHT22;10122;50.074;19.920;2022-09-30T17:46:42;12.90;99.90
19920;DHT22;10122;50.074;19.920;2022-09-30T17:49:09;12.90;99.90
19920;DHT22;10122;50.074;19.920;2022-09-30T17:51:35;12.90;99.90
19920;DHT22;10122;50.074;19.920;2022-09-30T17:54:03;12.90;99.90
19920;DHT22;10122;50.074;19.920;2022-09-30T17:56:29;12.90;99.90
19920;DHT22;10122;50.074;19.920;2022-09-30T17:58:55;12.90;99.90
19920;DHT22;10122;50.074;19.920;2022-09-30T18:01:22;12.90;99.90
19920;DHT22;10122;50.074;19.920;2022-09-30T18:03:47;12.90;99.90
19920;DHT22;10122;50.074;19.920;2022-09-30T18:06:17;12.80;99.90
19920;DHT22;10122;50.074;19.920;2022-09-30T18:08:50;12.90;99.90
19920;DHT22;10122;50.074;19.920;2022-09-30T18:11:22;12.90;99.90
19920;DHT22;10122;50.074;19.920;2022-09-30T18:13:53;12.90;99.90
19920;DHT22;10122;50.074;19.920;2022-09-30T18:16:23;12.90;99.90
19920;DHT22;10122;50.074;19.920;2022-09-30T18:18:49;12.80;99.90
19920;DHT22;10122;50.074;19.920;2022-09-30T18:21:14;12.80;99.90
19920;DHT22;10122;50.074;19.920;2022-09-30T18:23:40;12.80;99.90
19920;DHT22;10122;50.074;19.920;2022-09-30T18:26:05;12.80;99.90
19920;DHT22;10122;50.074;19.920;2022-09-30T18:28:31;12.80;99.90
19920;DHT22;10122;50.074;19.920;2022-09-30T18:31:03;12.80;99.90
19920;DHT22;10122;50.074;19.920;2022-09-30T18:33:29;12.80;99.90
19920;DHT22;10122;50.074;19.920;2022-09-30T18:35:59;12.80;99.90
19920;DHT22;10122;50.074;19.920;2022-09-30T18:38:25;12.80;99.90